createdAt,value
2019-05-18T00:00:51.604Z,7
2019-05-18T00:05:54.040Z,8
2019-05-18T00:10:56.426Z,7
2019-05-18T00:15:58.886Z,6
2019-05-18T00:21:01.336Z,7
2019-05-18T00:26:03.801Z,6
2019-05-18T00:31:06.350Z,7
2019-05-18T00:36:08.756Z,7
2019-05-18T00:41:11.162Z,7
2019-05-18T00:46:13.657Z,9
2019-05-18T00:51:16.094Z,7
2019-05-18T00:56:18.541Z,8
2019-05-18T01:01:21.131Z,9
2019-05-18T01:06:23.610Z,7
2019-05-18T01:16:28.375Z,8
2019-05-18T01:21:30.827Z,8
2019-05-18T01:26:33.367Z,10
2019-05-18T01:31:35.756Z,8
2019-05-18T01:36:38.217Z,9
2019-05-18T01:41:40.799Z,10
2019-05-18T01:46:43.165Z,10
2019-05-18T01:51:45.598Z,12
2019-05-18T01:56:48.033Z,13
2019-05-18T02:01:50.565Z,14
2019-05-18T02:06:52.949Z,15
2019-05-18T02:11:55.403Z,18
2019-05-18T02:16:57.886Z,14
2019-05-18T02:22:00.329Z,17
2019-05-18T02:27:02.845Z,15
2019-05-18T02:32:05.290Z,16
2019-05-18T02:37:07.741Z,17
2019-05-18T02:42:10.234Z,17
2019-05-18T02:47:12.622Z,16
2019-05-18T02:52:15.098Z,15
2019-05-18T02:57:17.516Z,17
2019-05-18T03:02:19.998Z,18
2019-05-18T03:07:22.445Z,18
2019-05-18T03:12:24.909Z,16
2019-05-18T03:17:27.363Z,17
2019-05-18T03:22:29.885Z,17
2019-05-18T03:27:32.298Z,16
2019-05-18T03:32:34.735Z,17
2019-05-18T03:37:37.251Z,16
2019-05-18T03:42:39.690Z,18
2019-05-18T03:47:42.100Z,15
2019-05-18T03:52:44.607Z,13
2019-05-18T03:57:47.033Z,15
2019-05-18T04:02:49.500Z,16
2019-05-18T04:07:51.935Z,15
2019-05-18T04:12:54.491Z,15
2019-05-18T04:17:56.871Z,14
2019-05-18T04:22:59.323Z,15
2019-05-18T04:28:01.755Z,12
2019-05-18T04:33:04.244Z,14
2019-05-18T04:38:06.926Z,15
2019-05-18T04:43:09.133Z,16
2019-05-18T04:48:11.609Z,16
2019-05-18T04:53:14.095Z,15
2019-05-18T04:58:16.495Z,15
2019-05-18T05:03:19.012Z,14
2019-05-18T05:08:21.455Z,13
2019-05-18T05:13:23.879Z,15
2019-05-18T05:18:26.361Z,14
2019-05-18T05:23:28.800Z,13
2019-05-18T05:28:31.247Z,12
2019-05-18T05:33:33.789Z,13
2019-05-18T05:38:36.160Z,11
2019-05-18T05:43:38.634Z,12
2019-05-18T05:48:41.097Z,9
2019-05-18T05:53:43.543Z,9
2019-05-18T05:58:45.995Z,9
2019-05-18T06:03:48.471Z,9
2019-05-18T06:08:50.914Z,10
2019-05-18T06:13:53.400Z,10
2019-05-18T06:18:55.831Z,9
2019-05-18T06:23:58.283Z,8
2019-05-18T06:29:00.768Z,8
2019-05-18T06:34:03.236Z,7
2019-05-18T06:39:05.663Z,8
2019-05-18T06:44:08.146Z,7
2019-05-18T06:49:10.659Z,7
2019-05-18T06:54:13.085Z,7
2019-05-18T06:59:16.370Z,7
2019-05-18T07:04:17.958Z,7
2019-05-18T07:09:20.409Z,6
2019-05-18T07:14:25.482Z,6
2019-05-18T07:19:25.338Z,6
2019-05-18T07:24:27.786Z,6
2019-05-18T07:29:30.242Z,5
2019-05-18T07:34:32.717Z,7
2019-05-18T07:39:36.130Z,6
2019-05-18T07:44:37.676Z,5
2019-05-18T07:49:40.126Z,5
2019-05-18T07:54:42.628Z,6
2019-05-18T07:59:45.014Z,7
2019-05-18T08:04:47.478Z,6
2019-05-18T08:09:49.948Z,7
2019-05-18T08:14:52.392Z,8
2019-05-18T08:19:54.865Z,8
2019-05-18T08:24:57.381Z,9
2019-05-18T08:29:59.759Z,9
2019-05-18T08:35:02.304Z,8
2019-05-18T08:40:04.693Z,10
2019-05-18T08:45:07.154Z,10
2019-05-18T08:50:09.634Z,10
2019-05-18T08:55:12.099Z,10
2019-05-18T09:00:14.528Z,10
2019-05-18T09:05:16.998Z,10
2019-05-18T09:10:19.429Z,11
2019-05-18T09:15:21.896Z,11
2019-05-18T09:20:24.341Z,11
2019-05-18T09:25:26.843Z,12
2019-05-18T09:30:29.319Z,11
2019-05-18T09:35:31.861Z,11
2019-05-18T09:40:34.175Z,12
2019-05-18T09:45:36.681Z,12
2019-05-18T09:50:39.108Z,10
2019-05-18T09:55:41.575Z,13
2019-05-18T10:00:44.032Z,12
2019-05-18T10:05:46.483Z,13
2019-05-18T10:10:48.957Z,12
2019-05-18T10:15:51.432Z,11
2019-05-18T10:20:53.857Z,13
2019-05-18T10:25:56.299Z,13
2019-05-18T10:30:58.793Z,13
2019-05-18T10:36:01.284Z,12
2019-05-18T10:41:03.739Z,12
2019-05-18T10:46:06.134Z,10
2019-05-18T10:51:08.633Z,12
2019-05-18T10:56:11.047Z,10
2019-05-18T11:01:13.519Z,10
2019-05-18T11:06:16.036Z,10
2019-05-18T11:11:18.446Z,10
2019-05-18T11:16:20.894Z,10
2019-05-18T11:21:23.635Z,10
2019-05-18T11:26:25.844Z,11
2019-05-18T11:31:28.270Z,11
2019-05-18T11:36:30.874Z,11
2019-05-18T11:41:33.227Z,14
2019-05-18T11:46:35.697Z,13
2019-05-18T11:51:38.165Z,14
2019-05-18T11:56:40.588Z,13
2019-05-18T12:01:43.048Z,13
2019-05-18T12:06:45.626Z,12
2019-05-18T12:11:48.013Z,13
2019-05-18T12:16:50.405Z,13
2019-05-18T12:21:52.947Z,12
2019-05-18T12:26:55.328Z,13
2019-05-18T12:31:57.823Z,12
2019-05-18T12:37:00.355Z,12
2019-05-18T12:42:02.697Z,9
2019-05-18T12:47:05.189Z,10
2019-05-18T12:52:07.675Z,11
2019-05-18T12:57:10.077Z,10
2019-05-18T13:02:12.556Z,12
2019-05-18T13:07:15.015Z,12
2019-05-18T13:17:21.317Z,10
2019-05-18T13:22:22.419Z,12
2019-05-18T13:27:38.253Z,9
2019-05-18T13:32:27.299Z,9
2019-05-18T13:37:29.814Z,8
2019-05-18T13:42:32.286Z,9
2019-05-18T13:47:34.699Z,7
2019-05-18T13:52:37.183Z,7
2019-05-18T13:57:39.702Z,6
2019-05-18T14:02:42.042Z,6
2019-05-18T14:07:44.556Z,7
2019-05-18T14:12:46.962Z,7
2019-05-18T14:17:49.492Z,6
2019-05-18T14:22:51.931Z,7
2019-05-18T14:27:54.345Z,7
2019-05-18T14:32:56.793Z,7
2019-05-18T14:37:59.264Z,8
2019-05-18T14:43:01.728Z,7
2019-05-18T14:48:04.199Z,8
2019-05-18T14:53:06.913Z,8
2019-05-18T14:58:09.141Z,7
2019-05-18T15:03:11.604Z,7
2019-05-18T15:08:14.013Z,8
2019-05-18T15:13:16.476Z,7
2019-05-18T15:18:18.926Z,6
2019-05-18T15:23:21.412Z,7
2019-05-18T15:28:23.832Z,7
2019-05-18T15:33:26.359Z,6
2019-05-18T15:38:28.780Z,6
2019-05-18T15:43:31.331Z,7
2019-05-18T15:48:33.686Z,6
2019-05-18T15:53:36.146Z,6
2019-05-18T15:58:38.789Z,5
2019-05-18T16:03:41.038Z,7
2019-05-18T16:08:43.527Z,8
2019-05-18T16:13:45.953Z,7
2019-05-18T16:18:48.435Z,7
2019-05-18T16:23:50.888Z,7
2019-05-18T16:28:53.407Z,8
2019-05-18T16:33:55.837Z,12
2019-05-18T16:38:58.285Z,18
2019-05-18T16:44:00.741Z,18
2019-05-18T16:49:03.235Z,7
2019-05-18T16:54:05.669Z,5
2019-05-18T16:59:08.085Z,6
2019-05-18T17:04:10.548Z,5
2019-05-18T17:09:12.993Z,5
2019-05-18T17:14:15.554Z,6
2019-05-18T17:19:17.933Z,6
2019-05-18T17:24:20.549Z,13
2019-05-18T17:29:22.947Z,17
2019-05-18T17:34:25.334Z,8
2019-05-18T17:39:27.770Z,8
2019-05-18T17:44:30.211Z,12
2019-05-18T17:49:32.675Z,11
2019-05-18T17:54:35.137Z,9
2019-05-18T17:59:37.649Z,10
2019-05-18T18:04:40.043Z,25
2019-05-18T18:09:42.512Z,38
2019-05-18T18:14:44.987Z,29
2019-05-18T18:19:47.440Z,23
2019-05-18T18:24:49.940Z,18
2019-05-18T18:29:52.335Z,15
2019-05-18T18:34:54.819Z,18
2019-05-18T18:39:57.303Z,18
2019-05-18T18:44:59.717Z,16
2019-05-18T18:55:04.682Z,9
2019-05-18T19:00:07.146Z,10
2019-05-18T19:05:09.539Z,11
2019-05-18T19:10:13.137Z,12
2019-05-18T19:15:14.462Z,11
2019-05-18T19:20:16.933Z,12
2019-05-18T19:25:19.455Z,12
2019-05-18T19:30:21.829Z,14
2019-05-18T19:35:24.279Z,20
2019-05-18T19:40:26.801Z,16
2019-05-18T19:45:29.198Z,20
2019-05-18T19:50:31.662Z,19
2019-05-18T19:55:34.156Z,16
2019-05-18T20:00:36.633Z,16
2019-05-18T20:05:39.069Z,14
2019-05-18T20:10:41.503Z,14
2019-05-18T20:15:43.949Z,16
2019-05-18T20:20:46.440Z,18
2019-05-18T20:25:48.975Z,24
2019-05-18T20:30:51.350Z,26
2019-05-18T20:35:53.834Z,25
2019-05-18T20:40:56.322Z,23
2019-05-18T20:45:58.708Z,21
2019-05-18T20:51:01.158Z,21
2019-05-18T20:56:03.643Z,21
2019-05-18T21:01:06.076Z,22
2019-05-18T21:06:08.562Z,22
2019-05-18T21:11:11.023Z,24
2019-05-18T21:16:13.445Z,25
2019-05-18T21:21:15.904Z,27
2019-05-18T21:26:18.385Z,25
2019-05-18T21:31:20.831Z,25
2019-05-18T21:36:23.269Z,26
2019-05-18T21:41:25.738Z,24
2019-05-18T21:46:28.200Z,27
2019-05-18T21:51:30.661Z,24
2019-05-18T21:56:33.273Z,23
2019-05-18T22:01:35.557Z,23
2019-05-18T22:06:38.010Z,25
2019-05-18T22:11:40.523Z,22
2019-05-18T22:16:42.923Z,24
2019-05-18T22:21:45.408Z,23
2019-05-18T22:26:47.865Z,24
2019-05-18T22:31:50.295Z,24
2019-05-18T22:36:52.816Z,25
2019-05-18T22:41:55.266Z,23
2019-05-18T22:46:57.684Z,22
2019-05-18T22:52:00.134Z,23
2019-05-18T22:57:02.597Z,25
2019-05-18T23:02:05.156Z,24
2019-05-18T23:07:07.508Z,25
2019-05-18T23:12:09.971Z,23
2019-05-18T23:17:12.465Z,26
2019-05-18T23:22:14.897Z,24
2019-05-18T23:27:17.349Z,25
2019-05-18T23:32:19.823Z,23
2019-05-18T23:37:22.304Z,23
2019-05-18T23:42:24.738Z,25
2019-05-18T23:47:27.215Z,24
2019-05-18T23:52:29.686Z,24
2019-05-18T23:57:32.096Z,24
